Map

Track Data

SID SEASON NUMBER BASIN SUBBASIN NAME ISO_TIME NATURE LAT LON WMO_WIND WMO_PRES WMO_AGENCY TRACK_TYPE DIST2LAND LANDFALL IFLAG USA_AGENCY USA_ATCF_ID USA_LAT USA_LON USA_RECORD USA_STATUS USA_WIND USA_PRES USA_SSHS USA_R34_NE USA_R34_SE USA_R34_SW USA_R34_NW USA_R50_NE USA_R50_SE USA_R50_SW USA_R50_NW USA_R64_NE USA_R64_SE USA_R64_SW USA_R64_NW USA_POCI USA_ROCI USA_RMW USA_EYE TOKYO_LAT TOKYO_LON TOKYO_GRADE TOKYO_WIND TOKYO_PRES TOKYO_R50_DIR TOKYO_R50_LONG TOKYO_R50_SHORT TOKYO_R30_DIR TOKYO_R30_LONG TOKYO_R30_SHORT TOKYO_LAND CMA_LAT CMA_LON CMA_CAT CMA_WIND CMA_PRES HKO_LAT HKO_LON HKO_CAT HKO_WIND HKO_PRES NEWDELHI_LAT NEWDELHI_LON NEWDELHI_GRADE NEWDELHI_WIND NEWDELHI_PRES NEWDELHI_CI NEWDELHI_DP NEWDELHI_POCI REUNION_LAT REUNION_LON REUNION_TYPE REUNION_WIND REUNION_PRES REUNION_TNUM REUNION_CI REUNION_RMW REUNION_R34_NE REUNION_R34_SE REUNION_R34_SW REUNION_R34_NW REUNION_R50_NE REUNION_R50_SE REUNION_R50_SW REUNION_R50_NW REUNION_R64_NE REUNION_R64_SE REUNION_R64_SW REUNION_R64_NW BOM_LAT BOM_LON BOM_TYPE BOM_WIND BOM_PRES BOM_TNUM BOM_CI BOM_RMW BOM_R34_NE BOM_R34_SE BOM_R34_SW BOM_R34_NW BOM_R50_NE BOM_R50_SE BOM_R50_SW BOM_R50_NW BOM_R64_NE BOM_R64_SE BOM_R64_SW BOM_R64_NW BOM_ROCI BOM_POCI BOM_EYE BOM_POS_METHOD BOM_PRES_METHOD NADI_LAT NADI_LON NADI_CAT NADI_WIND NADI_PRES WELLINGTON_LAT WELLINGTON_LON WELLINGTON_WIND WELLINGTON_PRES DS824_LAT DS824_LON DS824_STAGE DS824_WIND DS824_PRES TD9636_LAT TD9636_LON TD9636_STAGE TD9636_WIND TD9636_PRES TD9635_LAT TD9635_LON TD9635_WIND TD9635_PRES TD9635_ROCI NEUMANN_LAT NEUMANN_LON NEUMANN_CLASS NEUMANN_WIND NEUMANN_PRES MLC_LAT MLC_LON MLC_CLASS MLC_WIND MLC_PRES USA_GUST BOM_GUST BOM_GUST_PER REUNION_GUST REUNION_GUST_PER USA_SEAHGT USA_SEARAD_NE USA_SEARAD_SE USA_SEARAD_SW USA_SEARAD_NW STORM_SPEED STORM_DIR
1939339N11146 1939 83 WP MM NOT_NAMED 1939-12-05 10:00:00 NR 10.5000 145.500 main 1417 1417 __________O___ -1 10.5000 145.500 7 16 286
1939339N11146 1939 83 WP MM NOT_NAMED 1939-12-05 12:00:00 NR 10.6398 144.989 main 1434 1446 __________P___ -1 10.6398 144.989 7 15 285
1939339N11146 1939 83 WP MM NOT_NAMED 1939-12-05 15:00:00 NR 10.8399 144.246 main 1469 1480 __________P___ -1 10.8399 144.246 7 15 285
1939339N11146 1939 83 WP MM NOT_NAMED 1939-12-05 18:00:00 NR 11.0178 143.560 main 1504 1507 __________P___ -1 11.0178 143.560 7 13 284
1939339N11146 1939 83 WP MM NOT_NAMED 1939-12-05 21:00:00 NR 11.1616 142.970 main 1529 1521 __________P___ -1 11.1616 142.970 7 12 284
1939339N11146 1939 83 WP MM NOT_NAMED 1939-12-05 22:00:00 NR 11.2000 142.800 main 1521 1514 __________O___ -1 11.2000 142.800 7 9 282
1939339N11146 1939 83 WP MM NOT_NAMED 1939-12-06 00:00:00 NR 11.2616 142.506 main 1521 1511 __________P___ -1 11.2616 142.506 7 8 282
1939339N11146 1939 83 WP MM NOT_NAMED 1939-12-06 03:00:00 NR 11.3292 142.153 main 1511 1508 __________P___ -1 11.3292 142.153 7 6 281
1939339N11146 1939 83 WP MM NOT_NAMED 1939-12-06 06:00:00 NR 11.3892 141.865 main 1513 1507 __________P___ -1 11.3892 141.865 7 6 284
1939339N11146 1939 83 WP MM NOT_NAMED 1939-12-06 09:00:00 NR 11.4663 141.594 main 1515 1510 __________P___ -1 11.4663 141.594 7 6 287
1939339N11146 1939 83 WP MM NOT_NAMED 1939-12-06 10:00:00 NR 11.5000 141.500 main 1510 1506 __________O___ -1 11.5000 141.500 7 6 292
1939339N11146 1939 83 WP MM NOT_NAMED 1939-12-06 12:00:00 NR 11.5857 141.296 main 1512 1507 __________P___ -1 11.5857 141.296 7 7 295
1939339N11146 1939 83 WP MM NOT_NAMED 1939-12-06 15:00:00 NR 11.7393 140.984 main 1509 1509 __________P___ -1 11.7393 140.984 7 7 298
1939339N11146 1939 83 WP MM NOT_NAMED 1939-12-06 18:00:00 NR 11.9205 140.643 main 1514 1514 __________P___ -1 11.9205 140.643 7 8 298
1939339N11146 1939 83 WP MM NOT_NAMED 1939-12-06 21:00:00 NR 12.1264 140.248 main 1521 1521 __________P___ -1 12.1264 140.248 7 9 298
1939339N11146 1939 83 WP MM NOT_NAMED 1939-12-06 22:00:00 NR 12.2000 140.100 main 1528 1524 __________O___ -1 12.2000 140.100 7 10 297
1939339N11146 1939 83 WP MM NOT_NAMED 1939-12-07 00:00:00 NR 12.3519 139.792 main 1528 1480 __________P___ -1 12.3519 139.792 7 11 296
1939339N11146 1939 83 WP MM NOT_NAMED 1939-12-07 03:00:00 NR 12.5987 139.273 main 1480 1418 __________P___ -1 12.5987 139.273 7 12 295
1939339N11146 1939 83 WP MM NOT_NAMED 1939-12-07 06:00:00 NR 12.8575 138.686 main 1420 1348 __________P___ -1 12.8575 138.686 7 13 293
1939339N11146 1939 83 WP MM NOT_NAMED 1939-12-07 09:00:00 NR 13.1160 138.033 main 1348 1328 __________P___ -1 13.1160 138.033 7 14 292
1939339N11146 1939 83 WP MM NOT_NAMED 1939-12-07 10:00:00 NR 13.2000 137.800 main 1328 1279 __________O___ -1 13.2000 137.800 7 16 289
1939339N11146 1939 83 WP MM NOT_NAMED 1939-12-07 12:00:00 NR 13.3777 137.272 main 1279 1188 __________P___ -1 13.3777 137.272 7 17 288
1939339N11146 1939 83 WP MM NOT_NAMED 1939-12-07 15:00:00 NR 13.6380 136.421 main 1188 1111 __________P___ -1 13.6380 136.421 7 17 287
1939339N11146 1939 83 WP MM NOT_NAMED 1939-12-07 18:00:00 NR 13.8706 135.574 main 1111 1029 __________P___ -1 13.8706 135.574 7 16 285
1939339N11146 1939 83 WP MM NOT_NAMED 1939-12-07 21:00:00 NR 14.0536 134.818 main 1029 1008 __________P___ -1 14.0536 134.818 7 15 284
1939339N11146 1939 83 WP MM NOT_NAMED 1939-12-07 22:00:00 NR 14.1000 134.600 main 1008 976 __________O___ -1 14.1000 134.600 4 11 279
1939339N11146 1939 83 WP MM NOT_NAMED 1939-12-08 00:00:00 NR 14.1428 134.263 main 976 936 __________P___ -1 14.1428 134.263 4 9 275
1939339N11146 1939 83 WP MM NOT_NAMED 1939-12-08 03:00:00 NR 14.1571 133.872 main 936 905 __________P___ -1 14.1571 133.872 4 7 271
1939339N11146 1939 83 WP MM NOT_NAMED 1939-12-08 06:00:00 NR 14.1533 133.568 main 905 873 __________P___ -1 14.1533 133.568 4 6 272
1939339N11146 1939 83 WP MM NOT_NAMED 1939-12-08 09:00:00 NR 14.1776 133.294 main 873 863 __________P___ -1 14.1776 133.294 4 5 277
1939339N11146 1939 83 WP MM NOT_NAMED 1939-12-08 10:00:00 NR 14.2000 133.200 main 863 835 __________O___ -1 14.2000 133.200 4 7 290
1939339N11146 1939 83 WP MM NOT_NAMED 1939-12-08 12:00:00 NR 14.3040 132.933 main 835 800 __________P___ -1 14.3040 132.933 4 9 295
1939339N11146 1939 83 WP MM NOT_NAMED 1939-12-08 15:00:00 NR 14.5044 132.532 main 800 777 __________P___ -1 14.5044 132.532 4 9 300
1939339N11146 1939 83 WP MM NOT_NAMED 1939-12-08 18:00:00 NR 14.7272 132.165 main 777 755 __________P___ -1 14.7272 132.165 4 8 304
1939339N11146 1939 83 WP MM NOT_NAMED 1939-12-08 21:00:00 NR 14.9382 131.873 main 755 749 __________P___ -1 14.9382 131.873 4 7 308
1939339N11146 1939 83 WP MM NOT_NAMED 1939-12-08 22:00:00 NR 15.0000 131.800 main 749 744 __________O___ -1 15.0000 131.800 4 4 313
1939339N11146 1939 83 WP MM NOT_NAMED 1939-12-09 00:00:00 NR 15.0919 131.706 main 744 739 __________P___ -1 15.0919 131.706 4 3 324
1939339N11146 1939 83 WP MM NOT_NAMED 1939-12-09 03:00:00 NR 15.2048 131.648 main 739 739 __________P___ -1 15.2048 131.648 4 2 343
1939339N11146 1939 83 WP MM NOT_NAMED 1939-12-09 06:00:00 NR 15.2960 131.654 main 754 754 __________P___ -1 15.2960 131.654 4 2 9
1939339N11146 1939 83 WP MM NOT_NAMED 1939-12-09 09:00:00 NR 15.3749 131.689 main 759 759 __________P___ -1 15.3749 131.689 4 2 22
1939339N11146 1939 83 WP MM NOT_NAMED 1939-12-09 10:00:00 NR 15.4000 131.700 main 759 759 __________O___ -1 15.4000 131.700 4 1 0
1939339N11146 1939 83 WP MM NOT_NAMED 1939-12-09 12:00:00 NR 15.4163 131.679 main 759 759 __________P___ -1 15.4163 131.679 4 1 307
1939339N11146 1939 83 WP MM NOT_NAMED 1939-12-09 15:00:00 NR 15.4337 131.653 main 759 750 __________P___ -1 15.4337 131.653 4 1 333
1939339N11146 1939 83 WP MM NOT_NAMED 1939-12-09 18:00:00 NR 15.4869 131.648 main 755 755 __________P___ -1 15.4869 131.648 4 2 7
1939339N11146 1939 83 WP MM NOT_NAMED 1939-12-09 21:00:00 NR 15.6259 131.679 main 770 770 __________P___ -1 15.6259 131.679 4 3 15
1939339N11146 1939 83 WP MM NOT_NAMED 1939-12-09 22:00:00 NR 15.7000 131.700 main 775 775 __________O___ -1 15.7000 131.700 4 6 13
1939339N11146 1939 83 WP MM NOT_NAMED 1939-12-10 00:00:00 NR 15.9196 131.753 main 796 796 __________P___ -1 15.9196 131.753 4 8 14
1939339N11146 1939 83 WP MM NOT_NAMED 1939-12-10 03:00:00 NR 16.3437 131.869 main 828 834 __________P___ -1 16.3437 131.869 4 10 16
1939339N11146 1939 83 WP MM NOT_NAMED 1939-12-10 06:00:00 NR 16.8342 132.028 main 868 875 __________P___ -1 16.8342 132.028 4 11 19
1939339N11146 1939 83 WP MM NOT_NAMED 1939-12-10 09:00:00 NR 17.3382 132.226 main 918 922 __________P___ -1 17.3382 132.226 4 11 21
1939339N11146 1939 83 WP MM NOT_NAMED 1939-12-10 10:00:00 NR 17.5000 132.300 main 936 936 __________O___ -1 17.5000 132.300 4 10 23
1939339N11146 1939 83 WP MM NOT_NAMED 1939-12-10 12:00:00 NR 17.7751 132.421 main 960 960 __________P___ -1 17.7751 132.421 4 9 25
1939339N11146 1939 83 WP MM NOT_NAMED 1939-12-10 15:00:00 NR 18.1750 132.634 main 999 999 __________P___ -1 18.1750 132.634 4 9 30
1939339N11146 1939 83 WP MM NOT_NAMED 1939-12-10 18:00:00 NR 18.5685 132.905 main 1048 1048 __________P___ -1 18.5685 132.905 4 10 37
1939339N11146 1939 83 WP MM NOT_NAMED 1939-12-10 21:00:00 NR 18.9654 133.259 main 1107 1107 __________P___ -1 18.9654 133.259 4 11 41
1939339N11146 1939 83 WP MM NOT_NAMED 1939-12-10 22:00:00 NR 19.1000 133.400 main 1122 1122 __________O___ -1 19.1000 133.400 4 12 46
1939339N11146 1939 83 WP MM NOT_NAMED 1939-12-11 00:00:00 NR 19.3858 133.723 main 1166 1175 __________P___ -1 19.3858 133.723 4 13 49
1939339N11146 1939 83 WP MM NOT_NAMED 1939-12-11 03:00:00 NR 19.8209 134.289 main 1242 1242 __________P___ -1 19.8209 134.289 4 14 52
1939339N11146 1939 83 WP MM NOT_NAMED 1939-12-11 06:00:00 NR 20.2521 134.921 main 1266 1250 __________P___ -1 20.2521 134.921 4 15 55
1939339N11146 1939 83 WP MM NOT_NAMED 1939-12-11 09:00:00 NR 20.6672 135.581 main 1250 1243 __________P___ -1 20.6672 135.581 4 15 56
1939339N11146 1939 83 WP MM NOT_NAMED 1939-12-11 10:00:00 NR 20.8000 135.800 main 1247 1234 __________O___ -1 20.8000 135.800 7 14 57
1939339N11146 1939 83 WP MM NOT_NAMED 1939-12-11 12:00:00 NR 21.0555 136.232 main 1234 1232 __________P___ -1 21.0555 136.232 7 14 58
1939339N11146 1939 83 WP MM NOT_NAMED 1939-12-11 15:00:00 NR 21.4174 136.864 main 1237 1227 __________P___ -1 21.4174 136.864 7 14 59
1939339N11146 1939 83 WP MM NOT_NAMED 1939-12-11 18:00:00 NR 21.7602 137.483 main 1229 1227 __________P___ -1 21.7602 137.483 7 13 60
1939339N11146 1939 83 WP MM NOT_NAMED 1939-12-11 21:00:00 NR 22.0911 138.096 main 1232 1228 __________P___ -1 22.0911 138.096 7 13 60
1939339N11146 1939 83 WP MM NOT_NAMED 1939-12-11 22:00:00 NR 22.2000 138.300 main 1233 __________O___ -1 22.2000 138.300 7 13 60

Digital Typhoon Data and Search

About IBTrACS Database

This database is a web-friendly format of International Best Track Archive for Climate Stewardship (IBTrACS), a global best track data archive curated by NOAA dating back to 1842.

Updated: 2021-10-08